sensor_id;sensor_type;location;lat;lon;timestamp;P1;durP1;ratioP1;P2;durP2;ratioP2
46158;SDS011;31888;44.512;26.104;2023-05-07T00:01:39;11.15;;;4.82;;
46158;SDS011;31888;44.512;26.104;2023-05-07T00:04:04;8.75;;;4.97;;
46158;SDS011;31888;44.512;26.104;2023-05-07T00:06:30;10.02;;;5.05;;
46158;SDS011;31888;44.512;26.104;2023-05-07T00:08:56;13.98;;;5.72;;
46158;SDS011;31888;44.512;26.104;2023-05-07T00:11:20;9.93;;;5.35;;
46158;SDS011;31888;44.512;26.104;2023-05-07T00:13:46;8.82;;;5.40;;
46158;SDS011;31888;44.512;26.104;2023-05-07T00:16:10;11.20;;;4.78;;
46158;SDS011;31888;44.512;26.104;2023-05-07T00:18:35;8.43;;;4.93;;
46158;SDS011;31888;44.512;26.104;2023-05-07T00:21:00;11.73;;;5.88;;
46158;SDS011;31888;44.512;26.104;2023-05-07T00:23:24;10.65;;;5.13;;
46158;SDS011;31888;44.512;26.104;2023-05-07T00:25:49;11.95;;;5.03;;
46158;SDS011;31888;44.512;26.104;2023-05-07T00:28:13;14.52;;;5.07;;
46158;SDS011;31888;44.512;26.104;2023-05-07T00:30:39;9.18;;;4.70;;
46158;SDS011;31888;44.512;26.104;2023-05-07T00:33:03;9.63;;;5.30;;
46158;SDS011;31888;44.512;26.104;2023-05-07T00:35:28;8.88;;;5.97;;
46158;SDS011;31888;44.512;26.104;2023-05-07T00:37:53;11.38;;;5.38;;
46158;SDS011;31888;44.512;26.104;2023-05-07T00:40:17;12.48;;;5.45;;
46158;SDS011;31888;44.512;26.104;2023-05-07T00:42:42;11.60;;;6.38;;
46158;SDS011;31888;44.512;26.104;2023-05-07T00:45:10;9.93;;;5.32;;
46158;SDS011;31888;44.512;26.104;2023-05-07T00:47:36;12.93;;;5.63;;
46158;SDS011;31888;44.512;26.104;2023-05-07T00:50:00;11.85;;;5.60;;
46158;SDS011;31888;44.512;26.104;2023-05-07T00:52:26;9.43;;;5.55;;
46158;SDS011;31888;44.512;26.104;2023-05-07T00:54:51;12.00;;;5.50;;
46158;SDS011;31888;44.512;26.104;2023-05-07T00:57:16;11.45;;;5.63;;
46158;SDS011;31888;44.512;26.104;2023-05-07T00:59:40;10.27;;;5.53;;
46158;SDS011;31888;44.512;26.104;2023-05-07T01:02:05;14.13;;;5.93;;
46158;SDS011;31888;44.512;26.104;2023-05-07T01:04:32;11.45;;;5.95;;
46158;SDS011;31888;44.512;26.104;2023-05-07T01:06:57;9.80;;;5.93;;
46158;SDS011;31888;44.512;26.104;2023-05-07T01:09:23;12.20;;;6.30;;
46158;SDS011;31888;44.512;26.104;2023-05-07T01:11:48;10.32;;;6.22;;
46158;SDS011;31888;44.512;26.104;2023-05-07T01:14:14;12.55;;;6.57;;
46158;SDS011;31888;44.512;26.104;2023-05-07T01:16:39;17.52;;;6.75;;
46158;SDS011;31888;44.512;26.104;2023-05-07T01:19:04;15.32;;;7.25;;
46158;SDS011;31888;44.512;26.104;2023-05-07T01:21:31;11.05;;;6.22;;
46158;SDS011;31888;44.512;26.104;2023-05-07T01:24:01;12.55;;;5.93;;
46158;SDS011;31888;44.512;26.104;2023-05-07T01:26:27;10.35;;;6.20;;
46158;SDS011;31888;44.512;26.104;2023-05-07T01:28:51;8.73;;;5.45;;
46158;SDS011;31888;44.512;26.104;2023-05-07T01:31:15;10.75;;;6.20;;
46158;SDS011;31888;44.512;26.104;2023-05-07T01:33:41;12.57;;;6.15;;
46158;SDS011;31888;44.512;26.104;2023-05-07T01:36:09;7.53;;;5.47;;
46158;SDS011;31888;44.512;26.104;2023-05-07T01:38:36;14.18;;;6.05;;
46158;SDS011;31888;44.512;26.104;2023-05-07T01:41:02;8.68;;;4.95;;
46158;SDS011;31888;44.512;26.104;2023-05-07T01:43:27;12.95;;;5.55;;
46158;SDS011;31888;44.512;26.104;2023-05-07T01:45:52;10.05;;;5.88;;
46158;SDS011;31888;44.512;26.104;2023-05-07T01:48:18;10.65;;;5.50;;
46158;SDS011;31888;44.512;26.104;2023-05-07T01:50:43;7.50;;;4.78;;
46158;SDS011;31888;44.512;26.104;2023-05-07T01:53:07;10.63;;;5.78;;
46158;SDS011;31888;44.512;26.104;2023-05-07T01:55:33;10.40;;;5.65;;
46158;SDS011;31888;44.512;26.104;2023-05-07T01:58:00;10.35;;;5.70;;
46158;SDS011;31888;44.512;26.104;2023-05-07T02:00:25;11.55;;;5.18;;
46158;SDS011;31888;44.512;26.104;2023-05-07T02:02:50;12.07;;;5.20;;
46158;SDS011;31888;44.512;26.104;2023-05-07T02:05:24;12.73;;;6.10;;
46158;SDS011;31888;44.512;26.104;2023-05-07T02:08:03;11.63;;;5.68;;
46158;SDS011;31888;44.512;26.104;2023-05-07T02:10:28;9.70;;;4.75;;
46158;SDS011;31888;44.512;26.104;2023-05-07T02:12:54;12.60;;;5.20;;
46158;SDS011;31888;44.512;26.104;2023-05-07T02:15:20;11.10;;;5.38;;
46158;SDS011;31888;44.512;26.104;2023-05-07T02:17:57;11.70;;;5.70;;
46158;SDS011;31888;44.512;26.104;2023-05-07T02:20:24;14.52;;;5.47;;
46158;SDS011;31888;44.512;26.104;2023-05-07T02:23:08;13.00;;;5.57;;
46158;SDS011;31888;44.512;26.104;2023-05-07T02:25:33;13.80;;;5.63;;
46158;SDS011;31888;44.512;26.104;2023-05-07T02:27:57;11.27;;;6.00;;
46158;SDS011;31888;44.512;26.104;2023-05-07T02:30:37;9.60;;;4.85;;
46158;SDS011;31888;44.512;26.104;2023-05-07T02:33:03;13.10;;;5.32;;
46158;SDS011;31888;44.512;26.104;2023-05-07T02:35:28;13.00;;;5.18;;
46158;SDS011;31888;44.512;26.104;2023-05-07T02:37:53;7.65;;;5.15;;
46158;SDS011;31888;44.512;26.104;2023-05-07T02:40:20;12.30;;;5.45;;
46158;SDS011;31888;44.512;26.104;2023-05-07T02:42:44;16.52;;;5.38;;
46158;SDS011;31888;44.512;26.104;2023-05-07T02:45:09;9.25;;;4.68;;
46158;SDS011;31888;44.512;26.104;2023-05-07T02:47:36;8.45;;;5.25;;
46158;SDS011;31888;44.512;26.104;2023-05-07T02:50:00;10.77;;;4.90;;
46158;SDS011;31888;44.512;26.104;2023-05-07T02:52:25;7.22;;;4.72;;
46158;SDS011;31888;44.512;26.104;2023-05-07T02:54:50;8.48;;;5.32;;
46158;SDS011;31888;44.512;26.104;2023-05-07T02:57:14;10.73;;;4.93;;
46158;SDS011;31888;44.512;26.104;2023-05-07T02:59:39;9.48;;;5.55;;
46158;SDS011;31888;44.512;26.104;2023-05-07T03:02:03;10.98;;;5.47;;
46158;SDS011;31888;44.512;26.104;2023-05-07T03:04:29;8.65;;;5.20;;
46158;SDS011;31888;44.512;26.104;2023-05-07T03:06:54;12.20;;;5.60;;
46158;SDS011;31888;44.512;26.104;2023-05-07T03:09:19;9.90;;;5.00;;
46158;SDS011;31888;44.512;26.104;2023-05-07T03:11:43;12.13;;;5.00;;
46158;SDS011;31888;44.512;26.104;2023-05-07T03:14:08;11.45;;;5.20;;
46158;SDS011;31888;44.512;26.104;2023-05-07T03:16:33;11.02;;;5.28;;
46158;SDS011;31888;44.512;26.104;2023-05-07T03:18:58;12.60;;;4.80;;
46158;SDS011;31888;44.512;26.104;2023-05-07T03:21:26;11.02;;;4.75;;
46158;SDS011;31888;44.512;26.104;2023-05-07T03:23:50;11.45;;;4.80;;
46158;SDS011;31888;44.512;26.104;2023-05-07T03:26:15;9.15;;;4.93;;
46158;SDS011;31888;44.512;26.104;2023-05-07T03:28:40;7.22;;;4.78;;
46158;SDS011;31888;44.512;26.104;2023-05-07T03:31:08;10.57;;;4.70;;
46158;SDS011;31888;44.512;26.104;2023-05-07T03:33:32;12.00;;;5.03;;
46158;SDS011;31888;44.512;26.104;2023-05-07T03:35:58;9.93;;;4.38;;
46158;SDS011;31888;44.512;26.104;2023-05-07T03:38:24;12.95;;;4.88;;
46158;SDS011;31888;44.512;26.104;2023-05-07T03:40:49;8.15;;;4.25;;
46158;SDS011;31888;44.512;26.104;2023-05-07T03:43:14;6.72;;;4.18;;
46158;SDS011;31888;44.512;26.104;2023-05-07T03:45:44;7.28;;;4.47;;
46158;SDS011;31888;44.512;26.104;2023-05-07T03:48:13;10.27;;;4.60;;
46158;SDS011;31888;44.512;26.104;2023-05-07T03:50:38;9.48;;;4.53;;
46158;SDS011;31888;44.512;26.104;2023-05-07T03:53:03;9.45;;;4.95;;
46158;SDS011;31888;44.512;26.104;2023-05-07T03:55:33;8.40;;;3.80;;
46158;SDS011;31888;44.512;26.104;2023-05-07T03:57:58;10.38;;;5.03;;
46158;SDS011;31888;44.512;26.104;2023-05-07T04:00:23;8.40;;;4.20;;
46158;SDS011;31888;44.512;26.104;2023-05-07T04:02:48;9.68;;;4.30;;
46158;SDS011;31888;44.512;26.104;2023-05-07T04:05:19;6.28;;;3.58;;
46158;SDS011;31888;44.512;26.104;2023-05-07T04:07:47;6.50;;;4.00;;
46158;SDS011;31888;44.512;26.104;2023-05-07T04:10:16;9.65;;;4.22;;
46158;SDS011;31888;44.512;26.104;2023-05-07T04:12:45;8.88;;;4.43;;
46158;SDS011;31888;44.512;26.104;2023-05-07T04:15:14;9.35;;;4.28;;
46158;SDS011;31888;44.512;26.104;2023-05-07T04:17:38;6.70;;;3.65;;
46158;SDS011;31888;44.512;26.104;2023-05-07T04:20:08;10.00;;;3.97;;
46158;SDS011;31888;44.512;26.104;2023-05-07T04:22:34;6.03;;;3.70;;
46158;SDS011;31888;44.512;26.104;2023-05-07T04:25:02;10.10;;;4.53;;
46158;SDS011;31888;44.512;26.104;2023-05-07T04:27:28;6.10;;;3.45;;
46158;SDS011;31888;44.512;26.104;2023-05-07T04:29:54;6.78;;;4.35;;
46158;SDS011;31888;44.512;26.104;2023-05-07T04:32:20;6.22;;;3.80;;
46158;SDS011;31888;44.512;26.104;2023-05-07T04:34:44;8.43;;;4.05;;
46158;SDS011;31888;44.512;26.104;2023-05-07T04:37:09;9.48;;;4.07;;
46158;SDS011;31888;44.512;26.104;2023-05-07T04:39:34;9.95;;;4.75;;
46158;SDS011;31888;44.512;26.104;2023-05-07T04:41:59;5.32;;;3.70;;
46158;SDS011;31888;44.512;26.104;2023-05-07T04:44:37;7.85;;;4.57;;
46158;SDS011;31888;44.512;26.104;2023-05-07T04:47:03;7.03;;;4.10;;
46158;SDS011;31888;44.512;26.104;2023-05-07T04:49:27;10.57;;;3.90;;
46158;SDS011;31888;44.512;26.104;2023-05-07T04:51:53;9.70;;;4.35;;
46158;SDS011;31888;44.512;26.104;2023-05-07T04:54:18;7.07;;;4.00;;
46158;SDS011;31888;44.512;26.104;2023-05-07T04:56:43;9.10;;;4.07;;
46158;SDS011;31888;44.512;26.104;2023-05-07T04:59:08;7.38;;;4.18;;
46158;SDS011;31888;44.512;26.104;2023-05-07T05:01:33;19.63;;;5.25;;
46158;SDS011;31888;44.512;26.104;2023-05-07T05:03:59;6.63;;;4.30;;
46158;SDS011;31888;44.512;26.104;2023-05-07T05:06:24;10.25;;;4.35;;
46158;SDS011;31888;44.512;26.104;2023-05-07T05:08:58;11.70;;;4.55;;
46158;SDS011;31888;44.512;26.104;2023-05-07T05:11:55;7.88;;;4.30;;
46158;SDS011;31888;44.512;26.104;2023-05-07T05:14:12;9.23;;;4.07;;
46158;SDS011;31888;44.512;26.104;2023-05-07T05:16:49;8.63;;;3.85;;
46158;SDS011;31888;44.512;26.104;2023-05-07T05:19:15;9.35;;;4.35;;
46158;SDS011;31888;44.512;26.104;2023-05-07T05:21:39;7.32;;;3.72;;
46158;SDS011;31888;44.512;26.104;2023-05-07T05:24:08;6.57;;;4.13;;
46158;SDS011;31888;44.512;26.104;2023-05-07T05:26:34;6.78;;;3.58;;
46158;SDS011;31888;44.512;26.104;2023-05-07T05:28:58;9.60;;;4.00;;
46158;SDS011;31888;44.512;26.104;2023-05-07T05:31:25;9.27;;;3.97;;
46158;SDS011;31888;44.512;26.104;2023-05-07T05:33:50;11.10;;;3.25;;
46158;SDS011;31888;44.512;26.104;2023-05-07T05:38:58;7.65;;;3.85;;
46158;SDS011;31888;44.512;26.104;2023-05-07T05:41:25;6.07;;;3.60;;
46158;SDS011;31888;44.512;26.104;2023-05-07T05:43:50;8.10;;;3.38;;
46158;SDS011;31888;44.512;26.104;2023-05-07T05:46:15;7.13;;;3.22;;
46158;SDS011;31888;44.512;26.104;2023-05-07T05:48:40;9.40;;;3.95;;
46158;SDS011;31888;44.512;26.104;2023-05-07T05:51:05;8.15;;;3.70;;
46158;SDS011;31888;44.512;26.104;2023-05-07T05:53:32;10.95;;;3.60;;
46158;SDS011;31888;44.512;26.104;2023-05-07T05:55:57;8.05;;;3.42;;
46158;SDS011;31888;44.512;26.104;2023-05-07T05:58:24;10.70;;;3.55;;
46158;SDS011;31888;44.512;26.104;2023-05-07T06:00:54;8.63;;;3.50;;
46158;SDS011;31888;44.512;26.104;2023-05-07T06:03:21;9.52;;;3.40;;
46158;SDS011;31888;44.512;26.104;2023-05-07T06:05:46;7.30;;;3.45;;
46158;SDS011;31888;44.512;26.104;2023-05-07T06:08:13;7.30;;;3.25;;
46158;SDS011;31888;44.512;26.104;2023-05-07T06:10:39;6.90;;;3.00;;
46158;SDS011;31888;44.512;26.104;2023-05-07T06:13:05;7.82;;;3.30;;
46158;SDS011;31888;44.512;26.104;2023-05-07T06:15:32;5.82;;;2.83;;
46158;SDS011;31888;44.512;26.104;2023-05-07T06:18:02;10.10;;;3.55;;
46158;SDS011;31888;44.512;26.104;2023-05-07T06:20:27;8.10;;;2.90;;
46158;SDS011;31888;44.512;26.104;2023-05-07T06:22:54;6.72;;;3.53;;
46158;SDS011;31888;44.512;26.104;2023-05-07T06:25:20;8.98;;;3.50;;
46158;SDS011;31888;44.512;26.104;2023-05-07T06:27:46;6.63;;;3.00;;
46158;SDS011;31888;44.512;26.104;2023-05-07T06:30:12;10.07;;;3.17;;
46158;SDS011;31888;44.512;26.104;2023-05-07T06:32:37;4.72;;;2.45;;
46158;SDS011;31888;44.512;26.104;2023-05-07T06:35:03;8.23;;;3.10;;
46158;SDS011;31888;44.512;26.104;2023-05-07T06:37:31;6.40;;;3.28;;
46158;SDS011;31888;44.512;26.104;2023-05-07T06:40:00;5.67;;;3.40;;
46158;SDS011;31888;44.512;26.104;2023-05-07T06:42:28;3.97;;;2.88;;
46158;SDS011;31888;44.512;26.104;2023-05-07T06:45:01;5.78;;;3.83;;
46158;SDS011;31888;44.512;26.104;2023-05-07T06:47:27;16.15;;;4.18;;
46158;SDS011;31888;44.512;26.104;2023-05-07T06:49:52;9.93;;;3.20;;
46158;SDS011;31888;44.512;26.104;2023-05-07T06:52:20;4.72;;;2.95;;
46158;SDS011;31888;44.512;26.104;2023-05-07T06:54:49;3.53;;;2.77;;
46158;SDS011;31888;44.512;26.104;2023-05-07T06:57:16;7.50;;;3.10;;
46158;SDS011;31888;44.512;26.104;2023-05-07T06:59:41;5.72;;;2.95;;
46158;SDS011;31888;44.512;26.104;2023-05-07T07:02:08;5.28;;;3.13;;
46158;SDS011;31888;44.512;26.104;2023-05-07T07:04:33;4.80;;;3.00;;
46158;SDS011;31888;44.512;26.104;2023-05-07T07:07:02;5.38;;;2.92;;
46158;SDS011;31888;44.512;26.104;2023-05-07T07:09:27;5.78;;;3.20;;
46158;SDS011;31888;44.512;26.104;2023-05-07T07:11:52;6.05;;;3.20;;
46158;SDS011;31888;44.512;26.104;2023-05-07T07:14:18;5.85;;;3.75;;
46158;SDS011;31888;44.512;26.104;2023-05-07T07:16:46;6.10;;;2.83;;
46158;SDS011;31888;44.512;26.104;2023-05-07T07:19:17;8.05;;;3.08;;
46158;SDS011;31888;44.512;26.104;2023-05-07T07:21:46;11.82;;;3.45;;
46158;SDS011;31888;44.512;26.104;2023-05-07T07:24:12;7.60;;;3.60;;
46158;SDS011;31888;44.512;26.104;2023-05-07T07:26:43;12.80;;;3.05;;
46158;SDS011;31888;44.512;26.104;2023-05-07T07:29:08;8.13;;;4.20;;
46158;SDS011;31888;44.512;26.104;2023-05-07T07:31:37;11.70;;;4.38;;
46158;SDS011;31888;44.512;26.104;2023-05-07T07:34:02;8.98;;;3.95;;
46158;SDS011;31888;44.512;26.104;2023-05-07T07:36:29;8.07;;;3.75;;
46158;SDS011;31888;44.512;26.104;2023-05-07T07:39:10;3.80;;;3.40;;
46158;SDS011;31888;44.512;26.104;2023-05-07T07:41:35;6.43;;;3.33;;
46158;SDS011;31888;44.512;26.104;2023-05-07T07:44:00;6.35;;;2.97;;
46158;SDS011;31888;44.512;26.104;2023-05-07T07:46:26;10.27;;;3.35;;
46158;SDS011;31888;44.512;26.104;2023-05-07T07:48:51;7.22;;;3.17;;
46158;SDS011;31888;44.512;26.104;2023-05-07T07:51:16;9.23;;;3.58;;
46158;SDS011;31888;44.512;26.104;2023-05-07T07:53:42;6.88;;;3.20;;
46158;SDS011;31888;44.512;26.104;2023-05-07T07:56:09;7.60;;;3.63;;
46158;SDS011;31888;44.512;26.104;2023-05-07T07:58:34;8.85;;;3.03;;
46158;SDS011;31888;44.512;26.104;2023-05-07T08:01:01;5.25;;;2.95;;
46158;SDS011;31888;44.512;26.104;2023-05-07T08:03:26;6.47;;;3.28;;
46158;SDS011;31888;44.512;26.104;2023-05-07T08:05:55;8.75;;;3.28;;
46158;SDS011;31888;44.512;26.104;2023-05-07T08:08:20;5.38;;;2.85;;
46158;SDS011;31888;44.512;26.104;2023-05-07T08:10:48;6.70;;;3.28;;
46158;SDS011;31888;44.512;26.104;2023-05-07T08:13:21;5.38;;;3.33;;
46158;SDS011;31888;44.512;26.104;2023-05-07T08:15:46;6.78;;;3.13;;
46158;SDS011;31888;44.512;26.104;2023-05-07T08:18:11;3.92;;;2.80;;
46158;SDS011;31888;44.512;26.104;2023-05-07T08:20:36;8.27;;;3.45;;
46158;SDS011;31888;44.512;26.104;2023-05-07T08:23:08;8.85;;;3.88;;
46158;SDS011;31888;44.512;26.104;2023-05-07T08:25:35;8.45;;;3.60;;
46158;SDS011;31888;44.512;26.104;2023-05-07T08:28:02;6.38;;;3.28;;
46158;SDS011;31888;44.512;26.104;2023-05-07T08:30:29;7.77;;;3.43;;
46158;SDS011;31888;44.512;26.104;2023-05-07T08:32:54;8.32;;;3.45;;
46158;SDS011;31888;44.512;26.104;2023-05-07T08:35:19;7.70;;;3.42;;
46158;SDS011;31888;44.512;26.104;2023-05-07T08:37:44;8.57;;;3.05;;
46158;SDS011;31888;44.512;26.104;2023-05-07T08:40:10;9.43;;;2.95;;
46158;SDS011;31888;44.512;26.104;2023-05-07T08:42:37;7.13;;;3.17;;
46158;SDS011;31888;44.512;26.104;2023-05-07T08:45:07;8.43;;;3.30;;
46158;SDS011;31888;44.512;26.104;2023-05-07T08:47:42;6.55;;;2.88;;
46158;SDS011;31888;44.512;26.104;2023-05-07T08:50:11;7.88;;;3.20;;
46158;SDS011;31888;44.512;26.104;2023-05-07T08:52:37;10.70;;;3.60;;
46158;SDS011;31888;44.512;26.104;2023-05-07T08:55:06;6.82;;;3.58;;
46158;SDS011;31888;44.512;26.104;2023-05-07T08:57:32;5.15;;;3.53;;
46158;SDS011;31888;44.512;26.104;2023-05-07T09:00:03;8.63;;;3.90;;
46158;SDS011;31888;44.512;26.104;2023-05-07T09:02:32;6.38;;;3.95;;
46158;SDS011;31888;44.512;26.104;2023-05-07T09:05:08;6.00;;;3.80;;
46158;SDS011;31888;44.512;26.104;2023-05-07T09:07:37;9.60;;;4.50;;
46158;SDS011;31888;44.512;26.104;2023-05-07T09:10:03;6.63;;;4.03;;
46158;SDS011;31888;44.512;26.104;2023-05-07T09:12:31;15.25;;;4.25;;
46158;SDS011;31888;44.512;26.104;2023-05-07T09:15:05;5.85;;;3.92;;
46158;SDS011;31888;44.512;26.104;2023-05-07T09:17:39;6.60;;;3.67;;
46158;SDS011;31888;44.512;26.104;2023-05-07T09:20:10;8.32;;;4.20;;
46158;SDS011;31888;44.512;26.104;2023-05-07T09:22:41;8.20;;;3.65;;
46158;SDS011;31888;44.512;26.104;2023-05-07T09:25:10;5.60;;;3.43;;
46158;SDS011;31888;44.512;26.104;2023-05-07T09:27:36;5.97;;;3.55;;
46158;SDS011;31888;44.512;26.104;2023-05-07T09:30:03;5.10;;;3.63;;
46158;SDS011;31888;44.512;26.104;2023-05-07T09:32:34;11.30;;;3.88;;
46158;SDS011;31888;44.512;26.104;2023-05-07T09:35:06;7.55;;;3.90;;
46158;SDS011;31888;44.512;26.104;2023-05-07T09:37:38;6.35;;;3.63;;
46158;SDS011;31888;44.512;26.104;2023-05-07T09:40:05;7.20;;;4.07;;
46158;SDS011;31888;44.512;26.104;2023-05-07T09:42:32;7.60;;;4.47;;
46158;SDS011;31888;44.512;26.104;2023-05-07T09:44:59;6.53;;;3.50;;
46158;SDS011;31888;44.512;26.104;2023-05-07T09:47:31;11.50;;;3.88;;
46158;SDS011;31888;44.512;26.104;2023-05-07T09:50:12;6.95;;;2.85;;
46158;SDS011;31888;44.512;26.104;2023-05-07T09:52:47;6.85;;;2.50;;
46158;SDS011;31888;44.512;26.104;2023-05-07T09:55:14;8.30;;;3.58;;
46158;SDS011;31888;44.512;26.104;2023-05-07T09:57:48;5.43;;;3.25;;
46158;SDS011;31888;44.512;26.104;2023-05-07T10:00:23;5.90;;;2.80;;
46158;SDS011;31888;44.512;26.104;2023-05-07T10:02:57;6.20;;;2.88;;
46158;SDS011;31888;44.512;26.104;2023-05-07T10:05:40;6.50;;;2.90;;
46158;SDS011;31888;44.512;26.104;2023-05-07T10:08:08;8.90;;;3.50;;
46158;SDS011;31888;44.512;26.104;2023-05-07T10:10:35;15.45;;;3.95;;
46158;SDS011;31888;44.512;26.104;2023-05-07T10:13:04;4.55;;;3.58;;
46158;SDS011;31888;44.512;26.104;2023-05-07T10:15:37;8.02;;;3.45;;
46158;SDS011;31888;44.512;26.104;2023-05-07T10:18:05;4.35;;;3.58;;
46158;SDS011;31888;44.512;26.104;2023-05-07T10:21:18;4.68;;;3.30;;
46158;SDS011;31888;44.512;26.104;2023-05-07T10:23:48;5.88;;;3.50;;
46158;SDS011;31888;44.512;26.104;2023-05-07T10:26:15;8.68;;;3.83;;
46158;SDS011;31888;44.512;26.104;2023-05-07T10:28:44;4.72;;;3.60;;
46158;SDS011;31888;44.512;26.104;2023-05-07T10:31:20;7.05;;;3.83;;
46158;SDS011;31888;44.512;26.104;2023-05-07T10:34:03;7.38;;;4.18;;
46158;SDS011;31888;44.512;26.104;2023-05-07T10:36:36;9.25;;;4.47;;
46158;SDS011;31888;44.512;26.104;2023-05-07T10:39:03;7.75;;;4.45;;
46158;SDS011;31888;44.512;26.104;2023-05-07T10:41:34;7.82;;;4.43;;
46158;SDS011;31888;44.512;26.104;2023-05-07T10:44:03;6.65;;;4.47;;
46158;SDS011;31888;44.512;26.104;2023-05-07T10:46:30;7.50;;;4.38;;
46158;SDS011;31888;44.512;26.104;2023-05-07T10:49:13;7.53;;;4.45;;
46158;SDS011;31888;44.512;26.104;2023-05-07T10:52:13;6.90;;;4.10;;
46158;SDS011;31888;44.512;26.104;2023-05-07T10:55:18;6.78;;;4.65;;
46158;SDS011;31888;44.512;26.104;2023-05-07T10:58:23;7.43;;;4.68;;
46158;SDS011;31888;44.512;26.104;2023-05-07T11:01:15;7.95;;;4.43;;
46158;SDS011;31888;44.512;26.104;2023-05-07T11:04:18;10.32;;;4.93;;
46158;SDS011;31888;44.512;26.104;2023-05-07T11:10:08;15.85;;;5.28;;
46158;SDS011;31888;44.512;26.104;2023-05-07T11:12:54;8.40;;;5.57;;
46158;SDS011;31888;44.512;26.104;2023-05-07T11:15:39;11.25;;;5.53;;
46158;SDS011;31888;44.512;26.104;2023-05-07T11:18:15;8.88;;;4.53;;
46158;SDS011;31888;44.512;26.104;2023-05-07T11:20:54;8.05;;;4.72;;
46158;SDS011;31888;44.512;26.104;2023-05-07T11:23:56;11.27;;;5.10;;
46158;SDS011;31888;44.512;26.104;2023-05-07T11:26:44;11.43;;;5.22;;
46158;SDS011;31888;44.512;26.104;2023-05-07T11:31:48;8.10;;;4.80;;
46158;SDS011;31888;44.512;26.104;2023-05-07T11:34:21;16.40;;;4.90;;
46158;SDS011;31888;44.512;26.104;2023-05-07T11:36:48;9.40;;;5.03;;
46158;SDS011;31888;44.512;26.104;2023-05-07T11:39:26;11.55;;;5.53;;
46158;SDS011;31888;44.512;26.104;2023-05-07T11:41:52;12.82;;;5.35;;
46158;SDS011;31888;44.512;26.104;2023-05-07T11:44:17;8.25;;;5.65;;
46158;SDS011;31888;44.512;26.104;2023-05-07T11:46:43;9.30;;;4.43;;
46158;SDS011;31888;44.512;26.104;2023-05-07T11:49:09;12.23;;;5.85;;
46158;SDS011;31888;44.512;26.104;2023-05-07T11:51:34;8.05;;;5.00;;
46158;SDS011;31888;44.512;26.104;2023-05-07T11:53:59;8.32;;;4.03;;
46158;SDS011;31888;44.512;26.104;2023-05-07T11:56:25;4.78;;;4.03;;
46158;SDS011;31888;44.512;26.104;2023-05-07T11:58:51;10.52;;;4.60;;
46158;SDS011;31888;44.512;26.104;2023-05-07T12:01:17;10.15;;;4.90;;
46158;SDS011;31888;44.512;26.104;2023-05-07T12:03:43;7.47;;;4.78;;
46158;SDS011;31888;44.512;26.104;2023-05-07T12:06:09;11.32;;;4.50;;
46158;SDS011;31888;44.512;26.104;2023-05-07T12:08:36;10.10;;;4.97;;
46158;SDS011;31888;44.512;26.104;2023-05-07T12:11:01;8.38;;;5.00;;
46158;SDS011;31888;44.512;26.104;2023-05-07T12:13:32;12.73;;;4.03;;
46158;SDS011;31888;44.512;26.104;2023-05-07T12:15:58;9.65;;;4.53;;
46158;SDS011;31888;44.512;26.104;2023-05-07T12:18:26;8.00;;;4.65;;
46158;SDS011;31888;44.512;26.104;2023-05-07T12:20:55;6.95;;;4.60;;
46158;SDS011;31888;44.512;26.104;2023-05-07T12:23:21;7.57;;;4.63;;
46158;SDS011;31888;44.512;26.104;2023-05-07T12:25:49;8.63;;;4.45;;
46158;SDS011;31888;44.512;26.104;2023-05-07T12:28:13;7.50;;;3.97;;
46158;SDS011;31888;44.512;26.104;2023-05-07T12:30:39;5.47;;;4.20;;
46158;SDS011;31888;44.512;26.104;2023-05-07T12:33:05;7.57;;;4.00;;
46158;SDS011;31888;44.512;26.104;2023-05-07T12:35:31;7.63;;;4.75;;
46158;SDS011;31888;44.512;26.104;2023-05-07T12:37:57;6.88;;;4.53;;
46158;SDS011;31888;44.512;26.104;2023-05-07T12:40:34;8.68;;;4.18;;
46158;SDS011;31888;44.512;26.104;2023-05-07T12:43:01;9.40;;;4.07;;
46158;SDS011;31888;44.512;26.104;2023-05-07T12:45:25;8.52;;;4.13;;
46158;SDS011;31888;44.512;26.104;2023-05-07T12:47:50;8.80;;;4.00;;
46158;SDS011;31888;44.512;26.104;2023-05-07T12:50:16;11.60;;;7.22;;
46158;SDS011;31888;44.512;26.104;2023-05-07T12:52:41;7.60;;;4.90;;
46158;SDS011;31888;44.512;26.104;2023-05-07T12:55:07;7.93;;;4.70;;
46158;SDS011;31888;44.512;26.104;2023-05-07T12:57:37;6.45;;;4.57;;
46158;SDS011;31888;44.512;26.104;2023-05-07T13:00:03;9.85;;;4.63;;
46158;SDS011;31888;44.512;26.104;2023-05-07T13:02:32;7.28;;;4.40;;
46158;SDS011;31888;44.512;26.104;2023-05-07T13:04:57;6.57;;;4.82;;
46158;SDS011;31888;44.512;26.104;2023-05-07T13:07:27;6.22;;;4.40;;
46158;SDS011;31888;44.512;26.104;2023-05-07T13:09:52;6.68;;;4.82;;
46158;SDS011;31888;44.512;26.104;2023-05-07T13:12:17;7.43;;;4.57;;
46158;SDS011;31888;44.512;26.104;2023-05-07T13:14:42;6.72;;;4.43;;
46158;SDS011;31888;44.512;26.104;2023-05-07T13:17:07;12.25;;;5.13;;
46158;SDS011;31888;44.512;26.104;2023-05-07T13:19:33;13.13;;;4.22;;
46158;SDS011;31888;44.512;26.104;2023-05-07T13:22:00;9.93;;;4.72;;
46158;SDS011;31888;44.512;26.104;2023-05-07T13:24:26;8.35;;;5.07;;
46158;SDS011;31888;44.512;26.104;2023-05-07T13:26:51;7.57;;;4.20;;
46158;SDS011;31888;44.512;26.104;2023-05-07T13:29:16;9.85;;;4.90;;
46158;SDS011;31888;44.512;26.104;2023-05-07T13:31:40;6.55;;;3.92;;
46158;SDS011;31888;44.512;26.104;2023-05-07T13:34:07;7.13;;;4.97;;
46158;SDS011;31888;44.512;26.104;2023-05-07T13:36:32;8.02;;;4.68;;
46158;SDS011;31888;44.512;26.104;2023-05-07T13:38:59;7.57;;;4.60;;
46158;SDS011;31888;44.512;26.104;2023-05-07T13:41:26;16.85;;;10.70;;
46158;SDS011;31888;44.512;26.104;2023-05-07T13:43:50;10.07;;;5.82;;
46158;SDS011;31888;44.512;26.104;2023-05-07T13:46:16;13.27;;;6.60;;
46158;SDS011;31888;44.512;26.104;2023-05-07T13:48:40;6.82;;;5.30;;
46158;SDS011;31888;44.512;26.104;2023-05-07T13:51:06;6.68;;;5.00;;
46158;SDS011;31888;44.512;26.104;2023-05-07T13:53:31;9.45;;;4.40;;
46158;SDS011;31888;44.512;26.104;2023-05-07T13:55:55;25.98;;;5.45;;
46158;SDS011;31888;44.512;26.104;2023-05-07T13:58:23;13.43;;;4.70;;
46158;SDS011;31888;44.512;26.104;2023-05-07T14:00:48;8.25;;;4.75;;
46158;SDS011;31888;44.512;26.104;2023-05-07T14:03:13;6.57;;;4.30;;
46158;SDS011;31888;44.512;26.104;2023-05-07T14:05:40;17.85;;;5.13;;
46158;SDS011;31888;44.512;26.104;2023-05-07T14:08:04;11.15;;;4.47;;
46158;SDS011;31888;44.512;26.104;2023-05-07T14:10:32;15.68;;;4.55;;
46158;SDS011;31888;44.512;26.104;2023-05-07T14:12:57;7.55;;;4.28;;
46158;SDS011;31888;44.512;26.104;2023-05-07T14:15:26;8.35;;;4.30;;
46158;SDS011;31888;44.512;26.104;2023-05-07T14:17:50;6.78;;;5.07;;
46158;SDS011;31888;44.512;26.104;2023-05-07T14:20:17;12.95;;;4.40;;
46158;SDS011;31888;44.512;26.104;2023-05-07T14:22:45;6.88;;;4.22;;
46158;SDS011;31888;44.512;26.104;2023-05-07T14:25:10;9.00;;;4.20;;
46158;SDS011;31888;44.512;26.104;2023-05-07T14:30:05;7.40;;;4.07;;
46158;SDS011;31888;44.512;26.104;2023-05-07T14:32:33;9.32;;;4.70;;
46158;SDS011;31888;44.512;26.104;2023-05-07T14:34:58;11.55;;;4.85;;
46158;SDS011;31888;44.512;26.104;2023-05-07T14:37:28;8.10;;;4.60;;
46158;SDS011;31888;44.512;26.104;2023-05-07T14:39:53;6.35;;;4.80;;
46158;SDS011;31888;44.512;26.104;2023-05-07T14:42:18;7.35;;;4.65;;
46158;SDS011;31888;44.512;26.104;2023-05-07T14:44:43;8.95;;;4.57;;
46158;SDS011;31888;44.512;26.104;2023-05-07T14:47:08;6.53;;;3.85;;